sensor_id;sensor_type;location;lat;lon;timestamp;pressure;altitude;pressure_sealevel;temperature;humidity
18504;BME280;9381;54.244;10.074;2022-11-20T00:00:16;100667.88;;;3.13;100.00
18504;BME280;9381;54.244;10.074;2022-11-20T00:05:17;100659.38;;;3.18;100.00
18504;BME280;9381;54.244;10.074;2022-11-20T00:10:18;100659.19;;;3.19;100.00
18504;BME280;9381;54.244;10.074;2022-11-20T00:15:18;100663.38;;;3.14;100.00
18504;BME280;9381;54.244;10.074;2022-11-20T00:20:18;100652.69;;;3.14;100.00
18504;BME280;9381;54.244;10.074;2022-11-20T00:25:19;100657.69;;;3.17;100.00
18504;BME280;9381;54.244;10.074;2022-11-20T00:30:19;100642.66;;;3.16;100.00
18504;BME280;9381;54.244;10.074;2022-11-20T00:35:19;100643.63;;;3.23;100.00
18504;BME280;9381;54.244;10.074;2022-11-20T00:40:19;100643.31;;;3.26;100.00
18504;BME280;9381;54.244;10.074;2022-11-20T00:45:20;100640.25;;;3.37;100.00
18504;BME280;9381;54.244;10.074;2022-11-20T00:50:20;100647.28;;;3.30;100.00
18504;BME280;9381;54.244;10.074;2022-11-20T00:55:20;100641.44;;;3.26;100.00
18504;BME280;9381;54.244;10.074;2022-11-20T01:00:21;100639.94;;;3.32;100.00
18504;BME280;9381;54.244;10.074;2022-11-20T01:05:21;100639.25;;;3.38;100.00
18504;BME280;9381;54.244;10.074;2022-11-20T01:10:21;100638.59;;;3.36;100.00
18504;BME280;9381;54.244;10.074;2022-11-20T01:15:22;100629.22;;;3.32;100.00
18504;BME280;9381;54.244;10.074;2022-11-20T01:20:22;100633.28;;;3.28;100.00
18504;BME280;9381;54.244;10.074;2022-11-20T01:25:22;100636.25;;;3.33;100.00
18504;BME280;9381;54.244;10.074;2022-11-20T01:30:22;100635.78;;;3.29;100.00
18504;BME280;9381;54.244;10.074;2022-11-20T01:35:23;100620.56;;;3.30;100.00
18504;BME280;9381;54.244;10.074;2022-11-20T01:40:23;100609.88;;;3.30;100.00
18504;BME280;9381;54.244;10.074;2022-11-20T01:45:53;100601.34;;;3.26;100.00
18504;BME280;9381;54.244;10.074;2022-11-20T01:50:56;100590.16;;;3.31;100.00
18504;BME280;9381;54.244;10.074;2022-11-20T01:56:00;100591.50;;;3.35;100.00
18504;BME280;9381;54.244;10.074;2022-11-20T02:01:03;100590.81;;;3.33;100.00
18504;BME280;9381;54.244;10.074;2022-11-20T02:11:16;100581.44;;;3.37;100.00
18504;BME280;9381;54.244;10.074;2022-11-20T02:16:24;100575.75;;;3.40;100.00
18504;BME280;9381;54.244;10.074;2022-11-20T02:21:30;100572.78;;;3.35;100.00
18504;BME280;9381;54.244;10.074;2022-11-20T02:26:37;100572.81;;;3.27;100.00
18504;BME280;9381;54.244;10.074;2022-11-20T02:31:41;100575.47;;;3.27;100.00
18504;BME280;9381;54.244;10.074;2022-11-20T02:36:42;100573.13;;;3.24;100.00
18504;BME280;9381;54.244;10.074;2022-11-20T02:41:42;100571.63;;;3.29;100.00
18504;BME280;9381;54.244;10.074;2022-11-20T02:46:43;100575.13;;;3.30;100.00
18504;BME280;9381;54.244;10.074;2022-11-20T02:51:43;100565.44;;;3.29;100.00
18504;BME280;9381;54.244;10.074;2022-11-20T02:56:44;100559.75;;;3.32;100.00
18504;BME280;9381;54.244;10.074;2022-11-20T03:01:44;100563.44;;;3.31;100.00
18504;BME280;9381;54.244;10.074;2022-11-20T03:06:44;100563.97;;;3.18;100.00
18504;BME280;9381;54.244;10.074;2022-11-20T03:11:45;100561.78;;;3.22;100.00
18504;BME280;9381;54.244;10.074;2022-11-20T03:16:45;100561.31;;;3.18;100.00
18504;BME280;9381;54.244;10.074;2022-11-20T03:21:45;100558.06;;;3.31;100.00
18504;BME280;9381;54.244;10.074;2022-11-20T03:26:46;100564.13;;;3.25;100.00
18504;BME280;9381;54.244;10.074;2022-11-20T03:31:46;100559.78;;;3.24;100.00
18504;BME280;9381;54.244;10.074;2022-11-20T03:36:46;100560.47;;;3.26;100.00
18504;BME280;9381;54.244;10.074;2022-11-20T03:41:47;100559.25;;;3.28;100.00
18504;BME280;9381;54.244;10.074;2022-11-20T03:46:47;100549.41;;;3.29;100.00
18504;BME280;9381;54.244;10.074;2022-11-20T03:51:47;100545.59;;;3.23;100.00
18504;BME280;9381;54.244;10.074;2022-11-20T03:56:47;100540.38;;;3.30;100.00
18504;BME280;9381;54.244;10.074;2022-11-20T04:01:48;100546.72;;;3.29;100.00
18504;BME280;9381;54.244;10.074;2022-11-20T04:06:48;100540.59;;;3.20;100.00
18504;BME280;9381;54.244;10.074;2022-11-20T04:11:48;100541.78;;;3.18;100.00
18504;BME280;9381;54.244;10.074;2022-11-20T04:16:49;100532.44;;;3.14;100.00
18504;BME280;9381;54.244;10.074;2022-11-20T04:21:49;100525.09;;;3.16;100.00
18504;BME280;9381;54.244;10.074;2022-11-20T04:26:49;100527.28;;;3.12;100.00
18504;BME280;9381;54.244;10.074;2022-11-20T04:31:49;100533.94;;;3.16;100.00
18504;BME280;9381;54.244;10.074;2022-11-20T04:36:50;100532.50;;;3.06;100.00
18504;BME280;9381;54.244;10.074;2022-11-20T04:41:50;100531.28;;;3.08;100.00
18504;BME280;9381;54.244;10.074;2022-11-20T04:47:10;100541.84;;;3.02;100.00
18504;BME280;9381;54.244;10.074;2022-11-20T04:52:10;100537.47;;;3.09;100.00
18504;BME280;9381;54.244;10.074;2022-11-20T04:57:12;100526.66;;;3.02;100.00
18504;BME280;9381;54.244;10.074;2022-11-20T05:02:12;100526.50;;;2.96;100.00
18504;BME280;9381;54.244;10.074;2022-11-20T05:07:13;100516.78;;;3.03;100.00
18504;BME280;9381;54.244;10.074;2022-11-20T05:12:13;100515.00;;;2.95;100.00
18504;BME280;9381;54.244;10.074;2022-11-20T05:17:13;100515.00;;;2.95;100.00
18504;BME280;9381;54.244;10.074;2022-11-20T05:22:14;100515.00;;;2.95;100.00
18504;BME280;9381;54.244;10.074;2022-11-20T05:27:14;100518.19;;;2.91;100.00
18504;BME280;9381;54.244;10.074;2022-11-20T05:32:14;100506.16;;;2.87;100.00
18504;BME280;9381;54.244;10.074;2022-11-20T05:37:15;100510.81;;;2.93;100.00
18504;BME280;9381;54.244;10.074;2022-11-20T05:42:15;100510.19;;;2.83;100.00
18504;BME280;9381;54.244;10.074;2022-11-20T05:47:33;100498.16;;;2.87;100.00
18504;BME280;9381;54.244;10.074;2022-11-20T05:52:34;100492.16;;;2.85;100.00
18504;BME280;9381;54.244;10.074;2022-11-20T05:57:35;100492.50;;;2.82;100.00
18504;BME280;9381;54.244;10.074;2022-11-20T06:02:35;100498.19;;;2.79;100.00
18504;BME280;9381;54.244;10.074;2022-11-20T06:07:36;100497.03;;;2.73;100.00
18504;BME280;9381;54.244;10.074;2022-11-20T06:12:36;100500.69;;;2.80;100.00
18504;BME280;9381;54.244;10.074;2022-11-20T06:17:36;100491.16;;;2.78;100.00
18504;BME280;9381;54.244;10.074;2022-11-20T06:22:37;100487.53;;;2.79;100.00
18504;BME280;9381;54.244;10.074;2022-11-20T06:27:37;100489.19;;;2.80;100.00
18504;BME280;9381;54.244;10.074;2022-11-20T06:32:37;100491.88;;;2.72;100.00
18504;BME280;9381;54.244;10.074;2022-11-20T06:37:37;100476.69;;;2.65;100.00
18504;BME280;9381;54.244;10.074;2022-11-20T06:42:38;100485.56;;;2.65;100.00
18504;BME280;9381;54.244;10.074;2022-11-20T06:47:38;100469.56;;;2.57;100.00
18504;BME280;9381;54.244;10.074;2022-11-20T06:52:38;100472.22;;;2.57;100.00
18504;BME280;9381;54.244;10.074;2022-11-20T06:57:39;100472.72;;;2.61;100.00
18504;BME280;9381;54.244;10.074;2022-11-20T07:02:39;100474.88;;;2.65;100.00
18504;BME280;9381;54.244;10.074;2022-11-20T07:07:39;100472.19;;;2.65;100.00
18504;BME280;9381;54.244;10.074;2022-11-20T07:12:39;100465.72;;;2.60;100.00
18504;BME280;9381;54.244;10.074;2022-11-20T07:17:40;100474.75;;;2.59;100.00
18504;BME280;9381;54.244;10.074;2022-11-20T07:22:41;100481.88;;;2.66;100.00
18504;BME280;9381;54.244;10.074;2022-11-20T07:27:41;100486.88;;;2.69;100.00
18504;BME280;9381;54.244;10.074;2022-11-20T07:32:42;100476.19;;;2.69;100.00
18504;BME280;9381;54.244;10.074;2022-11-20T07:37:42;100475.00;;;2.72;100.00
18504;BME280;9381;54.244;10.074;2022-11-20T07:42:50;100474.34;;;2.78;100.00
18504;BME280;9381;54.244;10.074;2022-11-20T07:47:50;100471.81;;;2.76;100.00
18504;BME280;9381;54.244;10.074;2022-11-20T07:52:51;100471.78;;;2.84;100.00
18504;BME280;9381;54.244;10.074;2022-11-20T07:57:56;100473.00;;;3.12;100.00
18504;BME280;9381;54.244;10.074;2022-11-20T08:02:57;100459.22;;;3.23;100.00
18504;BME280;9381;54.244;10.074;2022-11-20T08:07:57;100458.41;;;3.22;100.00
18504;BME280;9381;54.244;10.074;2022-11-20T08:12:57;100465.19;;;3.33;100.00
18504;BME280;9381;54.244;10.074;2022-11-20T08:18:17;100470.00;;;3.37;100.00
18504;BME280;9381;54.244;10.074;2022-11-20T08:23:17;100482.19;;;3.40;100.00
18504;BME280;9381;54.244;10.074;2022-11-20T08:28:18;100488.25;;;3.34;100.00
18504;BME280;9381;54.244;10.074;2022-11-20T08:33:19;100485.88;;;3.39;100.00
18504;BME280;9381;54.244;10.074;2022-11-20T08:38:19;100489.19;;;3.41;100.00
18504;BME280;9381;54.244;10.074;2022-11-20T08:43:19;100490.53;;;3.45;100.00
18504;BME280;9381;54.244;10.074;2022-11-20T08:48:20;100489.50;;;3.46;100.00
18504;BME280;9381;54.244;10.074;2022-11-20T08:53:20;100492.19;;;3.46;100.00
18504;BME280;9381;54.244;10.074;2022-11-20T08:58:20;100487.31;;;3.72;100.00
18504;BME280;9381;54.244;10.074;2022-11-20T09:03:21;100494.00;;;4.13;100.00
18504;BME280;9381;54.244;10.074;2022-11-20T09:08:21;100494.28;;;4.18;100.00
18504;BME280;9381;54.244;10.074;2022-11-20T09:13:22;100495.25;;;4.39;100.00
18504;BME280;9381;54.244;10.074;2022-11-20T09:18:24;100484.91;;;4.51;100.00
18504;BME280;9381;54.244;10.074;2022-11-20T09:23:25;100491.00;;;4.45;100.00
18504;BME280;9381;54.244;10.074;2022-11-20T09:28:26;100498.34;;;4.28;100.00
18504;BME280;9381;54.244;10.074;2022-11-20T09:33:27;100500.66;;;4.17;100.00
18504;BME280;9381;54.244;10.074;2022-11-20T09:38:27;100503.34;;;4.17;100.00
18504;BME280;9381;54.244;10.074;2022-11-20T09:43:37;100502.25;;;4.26;100.00
18504;BME280;9381;54.244;10.074;2022-11-20T09:49:04;100491.28;;;4.50;100.00
18504;BME280;9381;54.244;10.074;2022-11-20T09:54:20;100490.50;;;6.05;100.00
18504;BME280;9381;54.244;10.074;2022-11-20T09:59:59;100493.09;;;6.20;94.38
18504;BME280;9381;54.244;10.074;2022-11-20T10:05:13;100500.44;;;5.69;93.27
18504;BME280;9381;54.244;10.074;2022-11-20T10:10:40;100492.16;;;5.29;95.11
18504;BME280;9381;54.244;10.074;2022-11-20T10:26:01;100488.06;;;4.69;99.33
18504;BME280;9381;54.244;10.074;2022-11-20T10:31:07;100482.53;;;4.56;100.00
18504;BME280;9381;54.244;10.074;2022-11-20T10:36:17;100483.44;;;4.34;100.00
18504;BME280;9381;54.244;10.074;2022-11-20T10:41:24;100481.19;;;4.23;100.00
18504;BME280;9381;54.244;10.074;2022-11-20T10:46:33;100478.81;;;4.28;100.00
18504;BME280;9381;54.244;10.074;2022-11-20T10:51:44;100474.16;;;4.22;100.00
18504;BME280;9381;54.244;10.074;2022-11-20T10:56:51;100472.97;;;4.24;100.00
18504;BME280;9381;54.244;10.074;2022-11-20T11:01:51;100476.56;;;4.17;100.00
18504;BME280;9381;54.244;10.074;2022-11-20T11:06:56;100465.28;;;4.07;100.00
18504;BME280;9381;54.244;10.074;2022-11-20T11:11:58;100470.91;;;4.12;100.00
18504;BME280;9381;54.244;10.074;2022-11-20T11:16:59;100466.28;;;4.06;100.00
18504;BME280;9381;54.244;10.074;2022-11-20T11:21:59;100459.66;;;4.16;100.00
18504;BME280;9381;54.244;10.074;2022-11-20T11:27:02;100454.97;;;4.33;100.00
18504;BME280;9381;54.244;10.074;2022-11-20T11:32:11;100450.94;;;4.37;100.00
18504;BME280;9381;54.244;10.074;2022-11-20T11:37:17;100458.34;;;4.64;100.00
18504;BME280;9381;54.244;10.074;2022-11-20T11:42:19;100447.16;;;4.60;100.00
18504;BME280;9381;54.244;10.074;2022-11-20T11:47:46;100443.91;;;4.65;100.00
18504;BME280;9381;54.244;10.074;2022-11-20T11:58:09;100445.56;;;4.66;100.00
18504;BME280;9381;54.244;10.074;2022-11-20T12:03:16;100444.31;;;4.62;100.00
18504;BME280;9381;54.244;10.074;2022-11-20T12:08:53;100443.19;;;4.71;100.00
18504;BME280;9381;54.244;10.074;2022-11-20T12:14:19;100441.63;;;4.62;99.96
18504;BME280;9381;54.244;10.074;2022-11-20T12:19:24;100440.84;;;4.68;100.00
18504;BME280;9381;54.244;10.074;2022-11-20T12:24:44;100434.66;;;4.82;100.00
18504;BME280;9381;54.244;10.074;2022-11-20T12:30:00;100428.34;;;5.04;100.00
18504;BME280;9381;54.244;10.074;2022-11-20T13:01:40;100404.94;;;6.57;82.84
18504;BME280;9381;54.244;10.074;2022-11-20T13:06:47;100395.78;;;6.11;83.12
18504;BME280;9381;54.244;10.074;2022-11-20T13:12:05;100394.41;;;5.73;84.21
18504;BME280;9381;54.244;10.074;2022-11-20T13:17:14;100395.44;;;5.52;84.75
18504;BME280;9381;54.244;10.074;2022-11-20T13:22:27;100390.78;;;5.39;85.09
18504;BME280;9381;54.244;10.074;2022-11-20T13:27:27;100393.38;;;5.12;84.84
18504;BME280;9381;54.244;10.074;2022-11-20T13:32:30;100390.00;;;5.03;86.42
18504;BME280;9381;54.244;10.074;2022-11-20T13:37:33;100385.44;;;5.04;85.40
18504;BME280;9381;54.244;10.074;2022-11-20T13:43:16;100382.44;;;4.92;85.42
18504;BME280;9381;54.244;10.074;2022-11-20T13:48:23;100378.66;;;4.87;87.03
18504;BME280;9381;54.244;10.074;2022-11-20T13:54:33;100373.69;;;4.84;86.88
18504;BME280;9381;54.244;10.074;2022-11-20T14:04:05;100359.13;;;4.72;88.68
18504;BME280;9381;54.244;10.074;2022-11-20T14:09:24;100357.38;;;4.50;89.23
18504;BME280;9381;54.244;10.074;2022-11-20T14:14:26;100365.63;;;4.34;89.72
18504;BME280;9381;54.244;10.074;2022-11-20T14:19:28;100366.09;;;4.23;91.65
18504;BME280;9381;54.244;10.074;2022-11-20T14:24:30;100371.63;;;4.07;92.31
18504;BME280;9381;54.244;10.074;2022-11-20T14:29:38;100368.84;;;4.15;91.94
18504;BME280;9381;54.244;10.074;2022-11-20T14:34:40;100357.59;;;4.19;91.12
18504;BME280;9381;54.244;10.074;2022-11-20T14:39:49;100348.75;;;4.04;92.03
18504;BME280;9381;54.244;10.074;2022-11-20T14:44:50;100344.03;;;3.92;92.16
18504;BME280;9381;54.244;10.074;2022-11-20T14:49:53;100336.47;;;3.95;91.69
18504;BME280;9381;54.244;10.074;2022-11-20T14:54:58;100325.38;;;3.84;91.44
18504;BME280;9381;54.244;10.074;2022-11-20T15:05:12;100323.63;;;3.62;93.93
18504;BME280;9381;54.244;10.074;2022-11-20T15:10:24;100317.31;;;3.55;93.96
18504;BME280;9381;54.244;10.074;2022-11-20T15:15:47;100313.00;;;3.54;94.05
18504;BME280;9381;54.244;10.074;2022-11-20T15:20:49;100322.00;;;3.38;94.39
18504;BME280;9381;54.244;10.074;2022-11-20T15:25:50;100321.34;;;3.14;94.43
18504;BME280;9381;54.244;10.074;2022-11-20T15:30:50;100311.19;;;2.87;95.55
18504;BME280;9381;54.244;10.074;2022-11-20T15:35:50;100317.91;;;2.83;95.47
18504;BME280;9381;54.244;10.074;2022-11-20T15:40:51;100302.94;;;2.74;95.44
18504;BME280;9381;54.244;10.074;2022-11-20T15:45:54;100299.50;;;2.66;96.28
18504;BME280;9381;54.244;10.074;2022-11-20T15:56:12;100300.09;;;2.53;97.91
18504;BME280;9381;54.244;10.074;2022-11-20T16:01:15;100312.78;;;2.51;99.00
18504;BME280;9381;54.244;10.074;2022-11-20T16:06:16;100308.13;;;2.45;98.34
18504;BME280;9381;54.244;10.074;2022-11-20T16:11:17;100298.50;;;2.36;97.98
18504;BME280;9381;54.244;10.074;2022-11-20T16:16:37;100303.56;;;2.23;98.65
18504;BME280;9381;54.244;10.074;2022-11-20T16:21:40;100303.88;;;2.28;99.54
18504;BME280;9381;54.244;10.074;2022-11-20T16:26:41;100296.84;;;2.35;100.00
18504;BME280;9381;54.244;10.074;2022-11-20T16:31:42;100303.47;;;2.39;100.00
18504;BME280;9381;54.244;10.074;2022-11-20T16:36:43;100291.63;;;2.42;100.00
18504;BME280;9381;54.244;10.074;2022-11-20T16:41:44;100296.13;;;2.41;100.00
18504;BME280;9381;54.244;10.074;2022-11-20T16:46:45;100302.66;;;2.39;100.00
18504;BME280;9381;54.244;10.074;2022-11-20T16:51:45;100296.47;;;2.38;100.00
18504;BME280;9381;54.244;10.074;2022-11-20T16:56:46;100292.31;;;2.36;100.00
18504;BME280;9381;54.244;10.074;2022-11-20T17:01:47;100290.13;;;2.39;100.00
18504;BME280;9381;54.244;10.074;2022-11-20T17:06:47;100288.50;;;2.30;100.00
18504;BME280;9381;54.244;10.074;2022-11-20T17:11:48;100275.91;;;2.24;100.00
18504;BME280;9381;54.244;10.074;2022-11-20T17:16:48;100278.50;;;2.32;100.00
18504;BME280;9381;54.244;10.074;2022-11-20T17:21:49;100275.22;;;2.22;100.00
18504;BME280;9381;54.244;10.074;2022-11-20T17:26:49;100272.94;;;2.11;100.00
18504;BME280;9381;54.244;10.074;2022-11-20T17:31:50;100274.81;;;2.03;100.00
18504;BME280;9381;54.244;10.074;2022-11-20T17:36:50;100276.66;;;1.94;100.00
18504;BME280;9381;54.244;10.074;2022-11-20T17:41:51;100279.03;;;1.89;100.00
18504;BME280;9381;54.244;10.074;2022-11-20T17:47:09;100271.03;;;1.89;100.00
18504;BME280;9381;54.244;10.074;2022-11-20T17:52:10;100273.75;;;1.73;100.00
18504;BME280;9381;54.244;10.074;2022-11-20T17:57:10;100271.06;;;1.81;100.00
18504;BME280;9381;54.244;10.074;2022-11-20T18:02:29;100253.06;;;1.83;100.00
18504;BME280;9381;54.244;10.074;2022-11-20T18:07:29;100260.41;;;1.73;100.00
18504;BME280;9381;54.244;10.074;2022-11-20T18:12:30;100257.94;;;1.64;100.00
18504;BME280;9381;54.244;10.074;2022-11-20T18:17:30;100250.78;;;1.64;100.00
18504;BME280;9381;54.244;10.074;2022-11-20T18:22:30;100244.16;;;1.60;100.00
18504;BME280;9381;54.244;10.074;2022-11-20T18:27:31;100235.66;;;1.57;100.00
18504;BME280;9381;54.244;10.074;2022-11-20T18:32:33;100228.84;;;1.46;100.00
18504;BME280;9381;54.244;10.074;2022-11-20T18:37:34;100232.88;;;1.34;100.00
18504;BME280;9381;54.244;10.074;2022-11-20T18:42:35;100232.25;;;1.24;100.00
18504;BME280;9381;54.244;10.074;2022-11-20T18:47:54;100229.91;;;1.13;100.00
18504;BME280;9381;54.244;10.074;2022-11-20T18:52:55;100221.25;;;1.03;100.00
18504;BME280;9381;54.244;10.074;2022-11-20T18:57:55;100223.94;;;0.95;100.00
18504;BME280;9381;54.244;10.074;2022-11-20T19:02:55;100224.63;;;0.81;100.00
18504;BME280;9381;54.244;10.074;2022-11-20T19:07:56;100219.78;;;0.77;100.00
18504;BME280;9381;54.244;10.074;2022-11-20T19:12:56;100219.63;;;0.78;100.00
18504;BME280;9381;54.244;10.074;2022-11-20T19:17:57;100222.63;;;0.83;100.00
18504;BME280;9381;54.244;10.074;2022-11-20T19:23:00;100209.31;;;0.83;100.00
18504;BME280;9381;54.244;10.074;2022-11-20T19:28:00;100208.81;;;0.80;100.00
18504;BME280;9381;54.244;10.074;2022-11-20T19:33:01;100207.00;;;0.72;100.00
18504;BME280;9381;54.244;10.074;2022-11-20T19:38:01;100200.16;;;0.62;100.00
18504;BME280;9381;54.244;10.074;2022-11-20T19:43:02;100206.66;;;0.59;100.00
18504;BME280;9381;54.244;10.074;2022-11-20T19:48:03;100201.81;;;0.63;100.00
18504;BME280;9381;54.244;10.074;2022-11-20T19:53:03;100191.00;;;0.64;100.00
18504;BME280;9381;54.244;10.074;2022-11-20T19:58:03;100191.50;;;0.60;100.00
18504;BME280;9381;54.244;10.074;2022-11-20T20:03:04;100191.00;;;0.56;100.00
18504;BME280;9381;54.244;10.074;2022-11-20T20:08:04;100185.69;;;0.40;100.00
18504;BME280;9381;54.244;10.074;2022-11-20T20:13:05;100184.50;;;0.35;100.00
18504;BME280;9381;54.244;10.074;2022-11-20T20:18:05;100183.69;;;0.34;100.00
18504;BME280;9381;54.244;10.074;2022-11-20T20:23:06;100176.69;;;0.49;100.00
18504;BME280;9381;54.244;10.074;2022-11-20T20:28:06;100168.41;;;0.52;100.00
18504;BME280;9381;54.244;10.074;2022-11-20T20:33:07;100161.09;;;0.54;100.00
18504;BME280;9381;54.244;10.074;2022-11-20T20:38:08;100158.28;;;0.56;100.00
18504;BME280;9381;54.244;10.074;2022-11-20T20:43:08;100162.75;;;0.55;100.00
18504;BME280;9381;54.244;10.074;2022-11-20T20:48:08;100156.63;;;0.55;100.00
18504;BME280;9381;54.244;10.074;2022-11-20T20:53:09;100150.09;;;0.57;100.00
18504;BME280;9381;54.244;10.074;2022-11-20T20:58:09;100144.78;;;0.57;100.00
18504;BME280;9381;54.244;10.074;2022-11-20T21:03:09;100136.97;;;0.56;100.00
18504;BME280;9381;54.244;10.074;2022-11-20T21:08:10;100133.47;;;0.63;100.00
18504;BME280;9381;54.244;10.074;2022-11-20T21:13:22;100125.97;;;0.75;100.00
18504;BME280;9381;54.244;10.074;2022-11-20T21:18:23;100115.78;;;0.86;100.00
18504;BME280;9381;54.244;10.074;2022-11-20T21:23:24;100116.78;;;0.93;100.00
18504;BME280;9381;54.244;10.074;2022-11-20T21:28:24;100120.09;;;0.95;100.00
18504;BME280;9381;54.244;10.074;2022-11-20T21:33:24;100120.44;;;1.00;100.00
18504;BME280;9381;54.244;10.074;2022-11-20T21:38:25;100118.78;;;0.99;100.00
18504;BME280;9381;54.244;10.074;2022-11-20T21:43:25;100109.44;;;1.03;100.00
18504;BME280;9381;54.244;10.074;2022-11-20T21:48:30;100111.44;;;1.01;100.00
18504;BME280;9381;54.244;10.074;2022-11-20T21:53:30;100106.97;;;1.02;100.00
18504;BME280;9381;54.244;10.074;2022-11-20T21:58:31;100100.78;;;1.01;100.00
18504;BME280;9381;54.244;10.074;2022-11-20T22:03:32;100103.28;;;1.03;100.00
18504;BME280;9381;54.244;10.074;2022-11-20T22:08:34;100087.31;;;1.03;100.00
18504;BME280;9381;54.244;10.074;2022-11-20T22:13:35;100085.84;;;0.84;100.00
18504;BME280;9381;54.244;10.074;2022-11-20T22:18:55;100076.22;;;0.83;100.00
18504;BME280;9381;54.244;10.074;2022-11-20T22:23:57;100073.72;;;0.82;100.00
18504;BME280;9381;54.244;10.074;2022-11-20T22:28:58;100078.22;;;0.81;100.00
18504;BME280;9381;54.244;10.074;2022-11-20T22:34:00;100077.38;;;0.81;100.00
18504;BME280;9381;54.244;10.074;2022-11-20T22:39:02;100065.78;;;0.74;100.00
18504;BME280;9381;54.244;10.074;2022-11-20T22:44:06;100062.28;;;0.57;100.00
18504;BME280;9381;54.244;10.074;2022-11-20T22:49:07;100065.81;;;0.42;100.00
18504;BME280;9381;54.244;10.074;2022-11-20T22:54:10;100064.66;;;0.28;99.93
18504;BME280;9381;54.244;10.074;2022-11-20T22:59:10;100055.53;;;0.15;99.82
18504;BME280;9381;54.244;10.074;2022-11-20T23:04:11;100053.88;;;0.06;99.75
18504;BME280;9381;54.244;10.074;2022-11-20T23:09:12;100051.41;;;-0.03;99.57
18504;BME280;9381;54.244;10.074;2022-11-20T23:14:13;100047.06;;;-0.04;98.96
18504;BME280;9381;54.244;10.074;2022-11-20T23:19:14;100047.06;;;-0.04;98.47
18504;BME280;9381;54.244;10.074;2022-11-20T23:24:14;100042.41;;;-0.10;98.33
18504;BME280;9381;54.244;10.074;2022-11-20T23:29:15;100039.41;;;-0.15;98.48
18504;BME280;9381;54.244;10.074;2022-11-20T23:34:15;100040.41;;;-0.24;98.52
18504;BME280;9381;54.244;10.074;2022-11-20T23:39:16;100039.25;;;-0.22;97.93
18504;BME280;9381;54.244;10.074;2022-11-20T23:44:16;100022.63;;;-0.24;97.98
18504;BME280;9381;54.244;10.074;2022-11-20T23:49:16;100022.78;;;-0.25;98.29
18504;BME280;9381;54.244;10.074;2022-11-20T23:54:16;100015.16;;;-0.28;97.92
18504;BME280;9381;54.244;10.074;2022-11-20T23:59:17;100004.53;;;-0.36;98.09
